Huachuca City, AZ

07:05 AM MST del 21 Settembre 2014 (GMT -0700)
Nogales International | Change Station
CLOSE
Current Station
Aeroporto
Location: Nogales,
Altitudine: 3944 ft
Stazioni meteo nelle vicinanze

Alt. 3944 ft 31.42 °N, 110.85 °W | Updated 11 minutes ago

Parzialmente nuvoloso
Parzialmente nuvoloso
68 °F
Sembra 68 °F
N
4
Vento Variabile Vento da SE

Oggi
Massima -- | Minima -- °F
--% Possibilità di precip.
Ieri
Massima -- | Minima -- °F
Precip. -- in
6:08 AM 6:19 PM
Luna calante, 7% visible
Pressione 29.94 in
Visibilità 10.0 miglia
Nuvole Molto nuvoloso 5500 ft
Coperto 7000 ft
Punto di rugiada 65 °F
Umidità 90%
Piovosità 0.00 in
Spessore del manto nevoso 0 in , 0 in , 1 in
Raggi UV 0 fuori da 12
Polline 8.00 fuori da 12
Qualità dell'aria Non disponibile.
Flu Activity Non disponibile.
METAR KOLS 211354Z AUTO 14003KT 10SM BKN055 OVC070 20/18 A3011 RMK AO2 SLP136 T02000183

More Conditions Fewer Conditions

Pressione 29.94 in
Visibilità 10.0 miglia
Nuvole Molto nuvoloso 5500 ft
Coperto 7000 ft
Punto di rugiada 65 °F
Umidità 90%
Piovosità 0.00 in
Spessore del manto nevoso 0 in , 0 in , 1 in
Raggi UV 0 fuori da 12
Polline 8.00 fuori da 12
Qualità dell'aria Non disponibile.
Flu Activity Non disponibile.
METAR KOLS 211354Z AUTO 14003KT 10SM BKN055 OVC070 20/18 A3011 RMK AO2 SLP136 T02000183

More Conditions Fewer Conditions

10-Day Weather Forecast

Almanac

Astronomia

Sep. 21, 2014 Alba Tramonto
Ora attuale 06:08 MST 18:19 MST
Crepuscolo civile 05:44 MST 18:43 MST
Crepuscolo nautico 05:16 MST 19:11 MST
Crepuscolo astronomico 04:47 MST 19:40 MST
Luna 03:52 MST 16:51 MST
Estensione della luce visibile 12h 58m
Lunghezza del giorno
12h 10m
Tomorrow will be 1m 55s shorter.
Luna calante, 7% of the Moon is Illuminated
Oggi
Luna calante
Set 24
Nuovo
Ott 1
Primo quarto
Ott 8
Luna piena
Ott 15
Ultimo quarto

Gli estremi di oggi

State Highs State Lows

Community

WunderPhotos

Upload Photos

1,755,147 foto caricate!

Nearby

Profondità neve

Stazione Profondità Altitudine
Happy Jack 0 in 7630 ft
Mormon Mountain 0 in 7500 ft
Wildcat 0 in 7850 ft
Workman Creek 1 in 6900 ft
White Horse Lake 0 in 7180 ft

Attività sismica

Città  Distanza Mag. Data & Ora
Non sono state riportate attività sismiche nelle vicinanze.
Minimo Magnitudo Mostrato è 2.5.

Temperature delle acque costiere

Località Temperatura
Nessun dato dalle stazioni

Stazioni meteo nelle vicinanze